createdAt,value
2022-12-19T00:01:32.999Z,25.27
2022-12-19T00:04:02.428Z,25.33
2022-12-19T00:06:34.429Z,25.70
2022-12-19T00:09:01.040Z,25.10
2022-12-19T00:11:29.563Z,25.73
2022-12-19T00:13:56.723Z,26.10
2022-12-19T00:16:25.364Z,26.38
2022-12-19T00:18:54.831Z,24.70
2022-12-19T00:21:23.938Z,25.20
2022-12-19T00:23:50.983Z,26.48
2022-12-19T00:26:30.106Z,25.30
2022-12-19T00:28:59.889Z,24.02
2022-12-19T00:31:30.054Z,25.23
2022-12-19T00:33:56.983Z,26.02
2022-12-19T00:36:26.057Z,24.92
2022-12-19T00:38:54.398Z,25.35
2022-12-19T00:41:26.258Z,25.75
2022-12-19T00:43:58.492Z,25.02
2022-12-19T00:46:29.175Z,24.85
2022-12-19T00:48:55.872Z,25.42
2022-12-19T00:51:25.124Z,25.98
2022-12-19T00:53:53.467Z,24.42
2022-12-19T00:56:23.757Z,25.85
2022-12-19T00:58:50.565Z,25.48
2022-12-19T01:01:19.909Z,24.58
2022-12-19T01:04:11.252Z,25.33
2022-12-19T01:06:34.372Z,25.85
2022-12-19T01:09:01.966Z,25.65
2022-12-19T01:11:47.073Z,26.10
2022-12-19T01:14:20.752Z,24.90
2022-12-19T01:16:49.503Z,26.08
2022-12-19T01:19:16.089Z,26.42
2022-12-19T01:21:42.634Z,25.73
2022-12-19T01:24:09.786Z,25.17
2022-12-19T01:26:36.388Z,24.92
2022-12-19T01:29:02.909Z,25.60
2022-12-19T01:31:29.522Z,25.55
2022-12-19T01:33:56.068Z,26.45
2022-12-19T01:36:22.704Z,26.08
2022-12-19T01:38:49.173Z,26.17
2022-12-19T01:41:15.724Z,25.00
2022-12-19T01:44:01.078Z,25.80
2022-12-19T01:46:34.123Z,24.83
2022-12-19T01:49:02.522Z,26.92
2022-12-19T01:51:37.299Z,25.70
2022-12-19T01:54:09.351Z,25.70
2022-12-19T01:56:41.358Z,27.33
2022-12-19T01:59:12.655Z,27.60
2022-12-19T02:01:51.899Z,26.63
2022-12-19T02:04:20.291Z,27.05
2022-12-19T02:06:47.392Z,27.40
2022-12-19T02:09:16.035Z,27.27
2022-12-19T02:11:42.595Z,27.52
2022-12-19T02:14:09.349Z,27.10
2022-12-19T02:17:17.310Z,25.75
2022-12-19T02:20:05.272Z,25.92
2022-12-19T02:23:05.822Z,26.20
2022-12-19T02:25:38.414Z,26.77
2022-12-19T02:28:31.306Z,26.08
2022-12-19T02:31:23.008Z,26.80
2022-12-19T02:34:07.495Z,26.02
2022-12-19T02:36:46.835Z,25.98
2022-12-19T02:39:26.252Z,26.50
2022-12-19T02:41:58.587Z,28.02
2022-12-19T02:44:40.139Z,27.17
2022-12-19T02:47:08.677Z,27.38
2022-12-19T02:49:36.842Z,28.15
2022-12-19T02:52:26.551Z,26.90
2022-12-19T02:54:57.306Z,27.13
2022-12-19T03:00:01.069Z,27.02
2022-12-19T03:03:00.722Z,26.20
2022-12-19T03:05:55.134Z,27.50
2022-12-19T03:08:39.821Z,27.30
2022-12-19T03:11:13.410Z,27.65
2022-12-19T03:14:03.708Z,26.92
2022-12-19T03:16:30.304Z,27.67
2022-12-19T03:18:57.854Z,27.63
2022-12-19T03:21:36.228Z,27.77
2022-12-19T03:24:05.612Z,28.13
2022-12-19T03:26:37.920Z,29.92
2022-12-19T03:29:15.292Z,28.83
2022-12-19T03:31:44.185Z,28.73
2022-12-19T03:34:18.435Z,27.90
2022-12-19T03:36:50.361Z,27.95
2022-12-19T03:39:19.421Z,28.40
2022-12-19T03:42:04.632Z,27.10
2022-12-19T03:44:35.561Z,26.90
2022-12-19T03:47:43.827Z,27.50
2022-12-19T03:50:11.166Z,26.80
2022-12-19T03:52:58.889Z,26.33
2022-12-19T03:55:28.461Z,28.80
2022-12-19T03:58:23.989Z,27.40
2022-12-19T04:00:51.809Z,26.52
2022-12-19T04:03:19.600Z,26.33
2022-12-19T04:05:48.463Z,27.50
2022-12-19T04:08:16.739Z,26.40
2022-12-19T04:10:49.478Z,26.75
2022-12-19T04:13:20.498Z,27.80
2022-12-19T04:16:00.069Z,26.70
2022-12-19T04:18:27.204Z,26.23
2022-12-19T04:21:11.561Z,27.50
2022-12-19T04:23:45.369Z,28.20
2022-12-19T04:26:13.644Z,29.15
2022-12-19T04:28:50.937Z,28.85
2022-12-19T04:31:19.505Z,28.30
2022-12-19T04:33:46.472Z,27.73
2022-12-19T04:36:13.130Z,27.20
2022-12-19T04:38:39.707Z,26.95
2022-12-19T04:41:06.353Z,27.42
2022-12-19T04:43:32.933Z,28.85
2022-12-19T04:46:00.138Z,27.67
2022-12-19T04:48:26.950Z,27.27
2022-12-19T04:50:53.573Z,27.45
2022-12-19T04:53:20.101Z,27.80
2022-12-19T04:55:46.621Z,29.17
2022-12-19T04:58:17.601Z,27.77
2022-12-19T05:00:46.849Z,27.17
2022-12-19T05:03:13.499Z,28.80
2022-12-19T05:05:40.213Z,27.05
2022-12-19T05:08:07.703Z,28.45
2022-12-19T05:10:35.973Z,28.45
2022-12-19T05:13:02.688Z,28.30
2022-12-19T05:15:29.262Z,28.88
2022-12-19T05:17:55.798Z,28.45
2022-12-19T05:20:22.300Z,27.65
2022-12-19T05:22:49.129Z,28.42
2022-12-19T05:25:15.789Z,27.05
2022-12-19T05:27:42.265Z,28.90
2022-12-19T05:30:09.601Z,28.23
2022-12-19T05:32:36.126Z,28.95
2022-12-19T05:35:02.643Z,28.63
2022-12-19T05:37:29.142Z,28.65
2022-12-19T05:39:55.579Z,29.90
2022-12-19T05:42:22.085Z,29.40
2022-12-19T05:44:48.615Z,28.70
2022-12-19T05:47:15.190Z,29.45
2022-12-19T05:49:41.749Z,27.77
2022-12-19T05:52:08.252Z,28.63
2022-12-19T05:54:34.750Z,28.25
2022-12-19T05:57:01.529Z,28.10
2022-12-19T05:59:28.022Z,27.83
2022-12-19T06:01:54.852Z,28.75
2022-12-19T06:04:21.403Z,29.67
2022-12-19T06:06:47.877Z,29.25
2022-12-19T06:09:14.360Z,29.25
2022-12-19T06:11:40.900Z,28.85
2022-12-19T06:14:07.451Z,30.08
2022-12-19T06:16:34.023Z,28.10
2022-12-19T06:19:00.543Z,29.90
2022-12-19T06:21:27.255Z,28.42
2022-12-19T06:23:54.774Z,27.70
2022-12-19T06:26:22.634Z,29.17
2022-12-19T06:28:51.548Z,31.45
2022-12-19T06:31:19.975Z,28.58
2022-12-19T06:33:46.572Z,28.95
2022-12-19T06:36:20.367Z,27.80
2022-12-19T06:38:47.501Z,28.83
2022-12-19T06:41:33.465Z,29.13
2022-12-19T06:44:01.800Z,30.42
2022-12-19T06:46:29.265Z,28.35
2022-12-19T06:48:56.153Z,28.20
2022-12-19T06:51:23.068Z,29.98
2022-12-19T06:53:50.318Z,29.05
2022-12-19T06:56:19.015Z,30.40
2022-12-19T06:58:45.835Z,30.27
2022-12-19T07:01:38.386Z,29.40
2022-12-19T07:04:05.863Z,29.08
2022-12-19T07:06:35.463Z,29.45
2022-12-19T07:09:03.193Z,28.70
2022-12-19T07:11:29.691Z,30.92
2022-12-19T07:13:56.139Z,29.60
2022-12-19T07:16:27.428Z,29.55
2022-12-19T07:18:54.213Z,29.27
2022-12-19T07:21:20.713Z,29.27
2022-12-19T07:23:47.263Z,29.95
2022-12-19T07:26:13.927Z,29.98
2022-12-19T07:28:40.559Z,29.65
2022-12-19T07:31:07.133Z,29.45
2022-12-19T07:33:33.764Z,30.80
2022-12-19T07:36:00.342Z,31.10
2022-12-19T07:38:26.964Z,36.55
2022-12-19T07:40:53.440Z,32.58
2022-12-19T07:43:20.116Z,31.05
2022-12-19T07:45:46.674Z,31.17
2022-12-19T07:48:13.274Z,31.30
2022-12-19T07:50:41.159Z,30.88
2022-12-19T07:53:07.629Z,29.73
2022-12-19T07:55:34.308Z,30.17
2022-12-19T07:58:00.812Z,31.80
2022-12-19T08:00:27.315Z,31.38
2022-12-19T08:02:53.845Z,30.35
2022-12-19T08:05:20.475Z,30.85
2022-12-19T08:07:47.044Z,32.42
2022-12-19T08:10:15.177Z,29.98
2022-12-19T08:12:42.243Z,31.42
2022-12-19T08:15:09.136Z,31.15
2022-12-19T08:17:38.649Z,32.13
2022-12-19T08:20:07.144Z,31.27
2022-12-19T08:22:34.022Z,31.50
2022-12-19T08:25:00.568Z,32.28
2022-12-19T08:27:27.563Z,32.08
2022-12-19T08:29:54.170Z,32.17
2022-12-19T08:32:22.003Z,32.35
2022-12-19T08:34:49.948Z,31.85
2022-12-19T08:37:17.125Z,32.38
2022-12-19T08:39:43.757Z,33.75
2022-12-19T08:42:10.239Z,33.00
2022-12-19T08:44:36.758Z,30.88
2022-12-19T08:47:03.326Z,32.25
2022-12-19T08:49:29.780Z,32.25
2022-12-19T08:51:56.440Z,32.17
2022-12-19T08:54:23.070Z,33.35
2022-12-19T08:56:49.877Z,33.22
2022-12-19T08:59:20.480Z,33.70
2022-12-19T09:01:58.674Z,33.35
2022-12-19T09:06:00.905Z,33.10
2022-12-19T09:07:12.568Z,34.28
2022-12-19T09:09:42.572Z,34.88
2022-12-19T09:12:09.162Z,32.83
2022-12-19T09:14:35.943Z,31.52
2022-12-19T09:17:02.997Z,31.90
2022-12-19T09:19:32.078Z,33.30
2022-12-19T09:21:58.779Z,33.42
2022-12-19T09:24:25.412Z,32.63
2022-12-19T09:26:52.610Z,33.53
2022-12-19T09:29:21.763Z,32.28
2022-12-19T09:31:56.427Z,32.72
2022-12-19T09:34:37.668Z,32.25
2022-12-19T09:37:16.238Z,31.45
2022-12-19T09:39:45.485Z,33.53
2022-12-19T09:42:25.371Z,31.38
2022-12-19T09:45:14.681Z,32.93
2022-12-19T09:47:49.240Z,31.92
2022-12-19T09:50:52.818Z,32.35
2022-12-19T09:53:36.359Z,33.42
2022-12-19T09:56:03.010Z,33.38
2022-12-19T09:58:42.491Z,32.60
2022-12-19T10:01:20.447Z,33.22
2022-12-19T10:03:58.542Z,30.92
2022-12-19T10:07:10.624Z,32.97
2022-12-19T10:11:26.033Z,32.38
2022-12-19T10:12:46.643Z,31.80
2022-12-19T10:15:34.232Z,33.08
2022-12-19T10:18:26.891Z,32.17
2022-12-19T10:21:59.059Z,33.50
2022-12-19T10:24:33.168Z,34.08
2022-12-19T10:27:11.919Z,31.85
2022-12-19T10:29:48.794Z,33.67
2022-12-19T10:32:27.848Z,33.13
2022-12-19T10:34:55.315Z,34.00
2022-12-19T10:37:47.347Z,34.30
2022-12-19T10:40:34.738Z,32.78
2022-12-19T10:43:34.800Z,33.67
2022-12-19T10:46:20.196Z,31.13
2022-12-19T10:48:50.651Z,33.70
2022-12-19T10:51:24.717Z,33.85
2022-12-19T10:53:57.173Z,33.63
2022-12-19T10:56:30.338Z,35.13
2022-12-19T10:59:03.135Z,33.50
2022-12-19T11:01:35.605Z,32.53
2022-12-19T11:04:18.115Z,34.33
2022-12-19T11:06:51.416Z,36.05
2022-12-19T11:09:29.293Z,33.53
2022-12-19T11:16:55.546Z,35.85
2022-12-19T11:21:41.121Z,33.92
2022-12-19T11:23:46.448Z,35.05
2022-12-19T11:29:29.926Z,35.88
2022-12-19T11:29:41.753Z,35.10
2022-12-19T11:30:38.166Z,33.13
2022-12-19T11:32:41.342Z,34.00
2022-12-19T11:35:36.815Z,34.85
2022-12-19T11:38:06.679Z,36.38
2022-12-19T11:40:44.721Z,33.78
2022-12-19T11:43:50.502Z,35.10
2022-12-19T11:46:32.848Z,34.80
2022-12-19T11:49:16.749Z,36.20
2022-12-19T11:52:23.717Z,40.05
2022-12-19T11:55:05.522Z,37.03
2022-12-19T11:57:32.053Z,37.65
2022-12-19T12:00:04.493Z,37.08
2022-12-19T12:03:05.669Z,38.75
2022-12-19T12:05:45.350Z,37.78
2022-12-19T12:09:42.661Z,38.10
2022-12-19T12:17:42.716Z,37.85
2022-12-19T12:31:01.918Z,36.78
2022-12-19T12:31:26.379Z,43.38
2022-12-19T12:31:38.256Z,37.53
2022-12-19T12:31:46.193Z,39.70
2022-12-19T12:32:04.670Z,37.25
2022-12-19T12:36:56.009Z,39.78
2022-12-19T12:39:50.004Z,38.67
2022-12-19T12:42:22.357Z,38.22
2022-12-19T12:44:52.806Z,40.08
2022-12-19T12:47:27.517Z,39.08
2022-12-19T12:49:58.752Z,38.35
2022-12-19T12:52:48.026Z,38.67
2022-12-19T12:55:20.479Z,39.72
2022-12-19T12:57:47.278Z,40.00
2022-12-19T13:00:27.439Z,38.88
2022-12-19T13:03:09.455Z,34.50
2022-12-19T13:05:43.893Z,41.33
2022-12-19T13:08:34.675Z,41.22
2022-12-19T13:11:04.515Z,42.00
2022-12-19T13:13:56.175Z,40.15
2022-12-19T13:16:45.506Z,40.63
2022-12-19T13:19:33.567Z,41.35
2022-12-19T13:22:09.057Z,39.40
2022-12-19T13:24:45.645Z,40.13
2022-12-19T13:27:21.170Z,38.65
2022-12-19T13:29:59.911Z,39.72
2022-12-19T13:32:32.680Z,40.67
2022-12-19T13:35:50.734Z,41.78
2022-12-19T13:39:55.644Z,41.67
2022-12-19T13:41:23.909Z,40.97
2022-12-19T13:43:50.461Z,39.60
2022-12-19T13:46:42.830Z,39.38
2022-12-19T13:49:31.658Z,39.08
2022-12-19T13:52:02.496Z,40.10
2022-12-19T13:54:34.606Z,39.80
2022-12-19T13:57:04.313Z,39.53
2022-12-19T13:59:39.903Z,42.13
2022-12-19T14:04:34.732Z,39.95
2022-12-19T14:07:05.037Z,40.53
2022-12-19T14:11:28.575Z,39.92
2022-12-19T14:13:57.432Z,38.08
2022-12-19T14:15:44.362Z,41.00
2022-12-19T14:18:44.993Z,40.97
2022-12-19T14:22:05.621Z,42.67
2022-12-19T14:24:19.523Z,41.08
2022-12-19T14:28:20.605Z,42.92
2022-12-19T14:30:29.901Z,41.90
2022-12-19T14:33:40.269Z,39.83
2022-12-19T14:36:08.614Z,38.72
2022-12-19T14:39:22.535Z,39.40
2022-12-19T14:41:45.476Z,38.72
2022-12-19T14:52:26.130Z,38.40
2022-12-19T14:52:35.818Z,38.28
2022-12-19T14:54:22.392Z,37.83
2022-12-19T14:54:25.031Z,39.30
2022-12-19T14:59:05.632Z,39.63
2022-12-19T15:01:35.099Z,41.00
2022-12-19T15:07:06.674Z,36.45
2022-12-19T15:11:06.148Z,37.97
2022-12-19T15:14:51.285Z,40.30
2022-12-19T15:15:56.450Z,40.08
2022-12-19T15:18:41.305Z,41.05
2022-12-19T15:21:13.146Z,45.58
2022-12-19T15:23:40.333Z,42.47
2022-12-19T15:26:13.200Z,42.63
2022-12-19T15:28:46.463Z,45.78
2022-12-19T15:31:34.619Z,42.75
2022-12-19T15:34:36.257Z,39.80
2022-12-19T15:37:04.989Z,37.67
2022-12-19T15:39:31.755Z,39.45
2022-12-19T15:42:00.298Z,37.33
2022-12-19T15:44:37.686Z,37.55
2022-12-19T15:47:07.914Z,37.15
2022-12-19T15:49:35.383Z,38.15
2022-12-19T15:52:02.955Z,39.42
2022-12-19T15:57:38.650Z,40.55
2022-12-19T16:00:12.961Z,39.22
2022-12-19T16:05:29.201Z,42.13
2022-12-19T16:07:56.969Z,41.27
2022-12-19T16:10:23.523Z,41.95
2022-12-19T16:12:53.133Z,41.75
2022-12-19T16:15:34.218Z,38.47
2022-12-19T16:18:03.145Z,40.47
2022-12-19T16:20:37.663Z,38.72
2022-12-19T16:23:04.293Z,39.45
2022-12-19T16:25:40.995Z,39.67
2022-12-19T16:28:15.346Z,41.40
2022-12-19T16:30:44.363Z,38.70
2022-12-19T16:33:22.104Z,37.35
2022-12-19T16:36:06.710Z,36.65
2022-12-19T16:38:33.986Z,37.03
2022-12-19T16:41:01.757Z,37.60
2022-12-19T16:43:32.016Z,37.42
2022-12-19T16:46:01.440Z,38.00
2022-12-19T16:48:30.025Z,37.08
2022-12-19T16:50:59.973Z,35.85
2022-12-19T16:53:26.601Z,36.20
2022-12-19T16:55:55.621Z,40.83
2022-12-19T16:58:25.204Z,37.65
2022-12-19T17:00:55.350Z,37.78
2022-12-19T17:03:48.316Z,37.55
2022-12-19T17:06:17.487Z,42.95
2022-12-19T17:08:44.773Z,37.30
2022-12-19T17:11:18.476Z,38.38
2022-12-19T17:13:47.661Z,41.85
2022-12-19T17:16:14.236Z,38.88
2022-12-19T17:18:43.404Z,45.03
2022-12-19T17:21:22.947Z,41.20
2022-12-19T17:23:50.352Z,38.83
2022-12-19T17:26:18.466Z,41.40
2022-12-19T17:28:48.103Z,40.33
2022-12-19T17:31:24.573Z,40.97
2022-12-19T17:33:51.624Z,42.08
2022-12-19T17:36:21.354Z,39.53
2022-12-19T17:38:51.482Z,37.45
2022-12-19T17:41:18.044Z,39.53
2022-12-19T17:43:44.636Z,38.65
2022-12-19T17:46:19.510Z,38.90
2022-12-19T17:48:50.450Z,39.67
2022-12-19T17:51:18.673Z,39.47
2022-12-19T17:53:46.394Z,39.13
2022-12-19T17:56:14.654Z,38.53
2022-12-19T17:58:41.540Z,39.45
2022-12-19T18:01:17.256Z,38.33
2022-12-19T18:03:43.871Z,39.22
2022-12-19T18:06:12.422Z,40.58
2022-12-19T18:08:41.461Z,40.25
2022-12-19T18:11:18.055Z,40.80
2022-12-19T18:13:45.199Z,39.85
2022-12-19T18:16:14.890Z,41.03
2022-12-19T18:18:41.745Z,40.47
2022-12-19T18:21:14.711Z,40.47
2022-12-19T18:23:42.090Z,41.15
2022-12-19T18:26:10.741Z,44.53
2022-12-19T18:28:37.780Z,42.13
2022-12-19T18:31:14.942Z,44.15
2022-12-19T18:33:46.665Z,44.08
2022-12-19T18:36:22.196Z,44.47
2022-12-19T18:38:51.395Z,43.47
2022-12-19T18:41:18.911Z,42.72
2022-12-19T18:43:45.597Z,43.63
2022-12-19T18:46:14.690Z,41.30
2022-12-19T18:48:43.096Z,41.22
2022-12-19T18:51:18.719Z,43.03
2022-12-19T18:53:46.890Z,42.58
2022-12-19T18:56:13.940Z,45.40
2022-12-19T18:58:41.454Z,43.17
2022-12-19T19:01:15.863Z,43.00
2022-12-19T19:03:51.780Z,43.88
2022-12-19T19:06:22.735Z,44.33
2022-12-19T19:08:50.277Z,41.50
2022-12-19T19:11:16.973Z,41.58
2022-12-19T19:13:43.420Z,44.90
2022-12-19T19:16:23.368Z,44.28
2022-12-19T19:18:54.929Z,44.97
2022-12-19T19:21:24.675Z,44.08
2022-12-19T19:23:57.736Z,42.37
2022-12-19T19:26:24.557Z,40.92
2022-12-19T19:28:52.699Z,41.08
2022-12-19T19:31:21.784Z,44.92
2022-12-19T19:34:08.766Z,42.65
2022-12-19T19:36:40.208Z,40.85
2022-12-19T19:39:07.301Z,41.20
2022-12-19T19:41:34.425Z,41.08
2022-12-19T19:44:01.422Z,40.25
2022-12-19T19:46:28.491Z,41.38
2022-12-19T19:48:55.342Z,39.38
2022-12-19T19:51:22.054Z,40.05
2022-12-19T19:53:48.637Z,39.78
2022-12-19T19:56:15.233Z,40.55
2022-12-19T19:58:41.987Z,41.88
2022-12-19T20:01:10.905Z,43.42
2022-12-19T20:03:38.408Z,47.83
2022-12-19T20:06:05.288Z,46.05
2022-12-19T20:08:38.847Z,42.50
2022-12-19T20:11:06.972Z,45.20
2022-12-19T20:13:34.167Z,46.67
2022-12-19T20:16:06.562Z,46.20
2022-12-19T20:18:33.722Z,48.03
2022-12-19T20:21:00.331Z,46.05
2022-12-19T20:23:27.108Z,49.65
2022-12-19T20:25:53.887Z,47.95
2022-12-19T20:28:20.440Z,47.83
2022-12-19T20:30:47.312Z,52.25
2022-12-19T20:33:14.103Z,54.35
2022-12-19T20:35:40.810Z,52.40
2022-12-19T20:38:07.663Z,50.15
2022-12-19T20:40:34.298Z,48.92
2022-12-19T20:43:02.117Z,46.80
2022-12-19T20:45:28.845Z,46.38
2022-12-19T20:47:55.449Z,45.40
2022-12-19T20:50:22.391Z,47.30
2022-12-19T20:52:48.984Z,46.95
2022-12-19T20:55:15.847Z,47.22
2022-12-19T20:57:42.355Z,48.30
2022-12-19T21:00:10.205Z,45.67
2022-12-19T21:03:00.571Z,45.47
2022-12-19T21:05:23.241Z,47.45
2022-12-19T21:07:49.845Z,46.47
2022-12-19T21:10:16.437Z,45.85
2022-12-19T21:12:47.547Z,44.03
2022-12-19T21:15:14.687Z,46.85
2022-12-19T21:17:41.321Z,46.60
2022-12-19T21:20:08.454Z,45.95
2022-12-19T21:22:35.310Z,44.67
2022-12-19T21:25:01.971Z,43.65
2022-12-19T21:27:28.572Z,42.55
2022-12-19T21:29:55.214Z,43.83
2022-12-19T21:32:21.851Z,43.85
2022-12-19T21:34:48.396Z,43.85
2022-12-19T21:37:14.947Z,41.97
2022-12-19T21:39:41.462Z,44.90
2022-12-19T21:42:08.148Z,43.83
2022-12-19T21:44:34.940Z,44.22
2022-12-19T21:47:01.729Z,42.97
2022-12-19T21:49:28.344Z,39.33
2022-12-19T21:51:54.911Z,43.65
2022-12-19T21:54:21.779Z,42.80
2022-12-19T21:56:48.321Z,41.90
2022-12-19T21:59:17.255Z,43.10
2022-12-19T22:01:45.350Z,42.05
2022-12-19T22:04:16.149Z,43.30
2022-12-19T22:09:13.625Z,44.13
2022-12-19T22:11:40.685Z,42.40
2022-12-19T22:14:07.672Z,41.60
2022-12-19T22:16:35.491Z,42.10
2022-12-19T22:19:03.038Z,43.97
2022-12-19T22:21:30.931Z,42.88
2022-12-19T22:24:02.547Z,45.03
2022-12-19T22:26:31.038Z,43.83
2022-12-19T22:28:58.649Z,50.33
2022-12-19T22:31:33.496Z,46.03
2022-12-19T22:34:02.941Z,45.95
2022-12-19T22:36:31.977Z,43.10
2022-12-19T22:39:00.324Z,48.33
2022-12-19T22:41:27.915Z,45.08
2022-12-19T22:43:55.538Z,45.58
2022-12-19T22:46:26.336Z,45.72
2022-12-19T22:48:55.033Z,44.28
2022-12-19T22:51:21.617Z,45.35
2022-12-19T22:53:48.859Z,42.42
2022-12-19T22:56:18.382Z,46.83
2022-12-19T22:58:46.795Z,46.30
2022-12-19T23:01:25.363Z,45.28
2022-12-19T23:03:53.852Z,43.03
2022-12-19T23:06:21.947Z,43.53
2022-12-19T23:08:48.977Z,44.72
2022-12-19T23:11:20.340Z,42.45
2022-12-19T23:13:48.245Z,40.40
2022-12-19T23:16:15.084Z,42.00
2022-12-19T23:18:42.550Z,42.83
2022-12-19T23:21:12.481Z,41.35
2022-12-19T23:23:42.024Z,39.92
2022-12-19T23:26:15.528Z,43.40
2022-12-19T23:29:03.697Z,42.85
2022-12-19T23:31:31.008Z,40.63
2022-12-19T23:33:58.654Z,42.80
2022-12-19T23:37:08.919Z,40.45
2022-12-19T23:39:13.701Z,40.33
2022-12-19T23:41:40.859Z,40.42
2022-12-19T23:44:09.041Z,39.33
2022-12-19T23:46:35.811Z,39.40
2022-12-19T23:49:02.493Z,43.30
2022-12-19T23:51:30.168Z,44.83
2022-12-19T23:53:56.904Z,43.28
2022-12-19T23:56:26.741Z,42.05
2022-12-19T23:58:53.750Z,40.75
